sensor_id;sensor_type;location;lat;lon;timestamp;P1;durP1;ratioP1;P2;durP2;ratioP2
77838;SDS011;67034;43.226;27.932;2023-06-26T00:00:27;14.35;;;10.20;;
77838;SDS011;67034;43.226;27.932;2023-06-26T00:02:53;13.02;;;10.05;;
77838;SDS011;67034;43.226;27.932;2023-06-26T00:05:19;13.10;;;10.40;;
77838;SDS011;67034;43.226;27.932;2023-06-26T00:07:46;13.32;;;9.52;;
77838;SDS011;67034;43.226;27.932;2023-06-26T00:10:12;13.90;;;10.23;;
77838;SDS011;67034;43.226;27.932;2023-06-26T00:12:38;14.13;;;9.60;;
77838;SDS011;67034;43.226;27.932;2023-06-26T00:15:04;13.27;;;9.63;;
77838;SDS011;67034;43.226;27.932;2023-06-26T00:17:30;13.48;;;9.80;;
77838;SDS011;67034;43.226;27.932;2023-06-26T00:20:01;18.95;;;10.63;;
77838;SDS011;67034;43.226;27.932;2023-06-26T00:22:28;13.80;;;10.48;;
77838;SDS011;67034;43.226;27.932;2023-06-26T00:24:55;16.83;;;10.82;;
77838;SDS011;67034;43.226;27.932;2023-06-26T00:27:20;13.18;;;10.43;;
77838;SDS011;67034;43.226;27.932;2023-06-26T00:29:46;16.90;;;10.38;;
77838;SDS011;67034;43.226;27.932;2023-06-26T00:32:12;16.95;;;11.57;;
77838;SDS011;67034;43.226;27.932;2023-06-26T00:34:37;16.58;;;10.48;;
77838;SDS011;67034;43.226;27.932;2023-06-26T00:37:03;15.20;;;9.95;;
77838;SDS011;67034;43.226;27.932;2023-06-26T00:39:29;16.40;;;9.70;;
77838;SDS011;67034;43.226;27.932;2023-06-26T00:41:56;16.75;;;10.25;;
77838;SDS011;67034;43.226;27.932;2023-06-26T00:44:22;13.70;;;9.75;;
77838;SDS011;67034;43.226;27.932;2023-06-26T00:46:48;17.58;;;11.18;;
77838;SDS011;67034;43.226;27.932;2023-06-26T00:49:14;14.95;;;8.73;;
77838;SDS011;67034;43.226;27.932;2023-06-26T00:51:40;13.98;;;9.95;;
77838;SDS011;67034;43.226;27.932;2023-06-26T00:54:06;15.95;;;10.50;;
77838;SDS011;67034;43.226;27.932;2023-06-26T00:56:32;16.63;;;10.27;;
77838;SDS011;67034;43.226;27.932;2023-06-26T00:58:59;13.80;;;10.25;;
77838;SDS011;67034;43.226;27.932;2023-06-26T01:01:25;16.13;;;10.10;;
77838;SDS011;67034;43.226;27.932;2023-06-26T01:03:51;14.00;;;10.30;;
77838;SDS011;67034;43.226;27.932;2023-06-26T01:06:18;14.20;;;9.02;;
77838;SDS011;67034;43.226;27.932;2023-06-26T01:08:47;22.33;;;9.93;;
77838;SDS011;67034;43.226;27.932;2023-06-26T01:11:13;15.50;;;9.25;;
77838;SDS011;67034;43.226;27.932;2023-06-26T01:13:40;12.57;;;9.30;;
77838;SDS011;67034;43.226;27.932;2023-06-26T01:16:08;10.93;;;8.07;;
77838;SDS011;67034;43.226;27.932;2023-06-26T01:18:35;14.43;;;8.55;;
77838;SDS011;67034;43.226;27.932;2023-06-26T01:21:07;13.02;;;9.23;;
77838;SDS011;67034;43.226;27.932;2023-06-26T01:23:36;13.50;;;7.70;;
77838;SDS011;67034;43.226;27.932;2023-06-26T01:26:15;11.18;;;8.00;;
77838;SDS011;67034;43.226;27.932;2023-06-26T01:28:44;11.30;;;7.25;;
77838;SDS011;67034;43.226;27.932;2023-06-26T01:31:11;10.43;;;8.10;;
77838;SDS011;67034;43.226;27.932;2023-06-26T01:33:38;14.13;;;7.88;;
77838;SDS011;67034;43.226;27.932;2023-06-26T01:36:04;10.30;;;6.88;;
77838;SDS011;67034;43.226;27.932;2023-06-26T01:38:31;12.50;;;7.30;;
77838;SDS011;67034;43.226;27.932;2023-06-26T01:40:57;15.77;;;7.85;;
77838;SDS011;67034;43.226;27.932;2023-06-26T01:43:26;11.65;;;7.78;;
77838;SDS011;67034;43.226;27.932;2023-06-26T01:45:58;11.25;;;8.00;;
77838;SDS011;67034;43.226;27.932;2023-06-26T01:48:27;11.98;;;7.57;;
77838;SDS011;67034;43.226;27.932;2023-06-26T01:50:57;12.38;;;7.82;;
77838;SDS011;67034;43.226;27.932;2023-06-26T01:53:25;12.63;;;7.57;;
77838;SDS011;67034;43.226;27.932;2023-06-26T01:55:55;14.02;;;8.18;;
77838;SDS011;67034;43.226;27.932;2023-06-26T01:58:26;15.45;;;7.82;;
77838;SDS011;67034;43.226;27.932;2023-06-26T02:00:52;12.75;;;8.25;;
77838;SDS011;67034;43.226;27.932;2023-06-26T02:03:18;11.13;;;8.00;;
77838;SDS011;67034;43.226;27.932;2023-06-26T02:05:45;15.40;;;8.48;;
77838;SDS011;67034;43.226;27.932;2023-06-26T02:08:14;17.80;;;8.93;;
77838;SDS011;67034;43.226;27.932;2023-06-26T02:10:40;12.77;;;8.20;;
77838;SDS011;67034;43.226;27.932;2023-06-26T02:13:06;18.23;;;9.10;;
77838;SDS011;67034;43.226;27.932;2023-06-26T02:15:33;10.85;;;7.78;;
77838;SDS011;67034;43.226;27.932;2023-06-26T02:17:59;14.13;;;8.82;;
77838;SDS011;67034;43.226;27.932;2023-06-26T02:20:24;12.68;;;8.48;;
77838;SDS011;67034;43.226;27.932;2023-06-26T02:22:50;17.13;;;8.77;;
77838;SDS011;67034;43.226;27.932;2023-06-26T02:25:17;19.33;;;9.82;;
77838;SDS011;67034;43.226;27.932;2023-06-26T02:27:43;13.20;;;8.82;;
77838;SDS011;67034;43.226;27.932;2023-06-26T02:30:09;12.73;;;8.43;;
77838;SDS011;67034;43.226;27.932;2023-06-26T02:32:36;16.80;;;9.65;;
77838;SDS011;67034;43.226;27.932;2023-06-26T02:35:02;16.58;;;9.40;;
77838;SDS011;67034;43.226;27.932;2023-06-26T02:37:28;15.73;;;9.50;;
77838;SDS011;67034;43.226;27.932;2023-06-26T02:39:54;16.48;;;10.02;;
77838;SDS011;67034;43.226;27.932;2023-06-26T02:42:20;13.32;;;7.85;;
77838;SDS011;67034;43.226;27.932;2023-06-26T02:44:45;18.23;;;10.57;;
77838;SDS011;67034;43.226;27.932;2023-06-26T02:47:11;14.50;;;9.50;;
77838;SDS011;67034;43.226;27.932;2023-06-26T02:49:38;20.02;;;10.00;;
77838;SDS011;67034;43.226;27.932;2023-06-26T02:52:04;17.95;;;10.25;;
77838;SDS011;67034;43.226;27.932;2023-06-26T02:54:30;17.05;;;10.15;;
77838;SDS011;67034;43.226;27.932;2023-06-26T02:56:55;17.90;;;10.70;;
77838;SDS011;67034;43.226;27.932;2023-06-26T02:59:21;14.52;;;9.85;;
77838;SDS011;67034;43.226;27.932;2023-06-26T03:01:47;15.02;;;10.63;;
77838;SDS011;67034;43.226;27.932;2023-06-26T03:04:12;15.77;;;9.98;;
77838;SDS011;67034;43.226;27.932;2023-06-26T03:06:41;14.27;;;9.13;;
77838;SDS011;67034;43.226;27.932;2023-06-26T03:09:07;15.88;;;9.30;;
77838;SDS011;67034;43.226;27.932;2023-06-26T03:11:33;14.52;;;9.55;;
77838;SDS011;67034;43.226;27.932;2023-06-26T03:13:58;14.23;;;9.82;;
77838;SDS011;67034;43.226;27.932;2023-06-26T03:16:24;18.58;;;9.63;;
77838;SDS011;67034;43.226;27.932;2023-06-26T03:18:50;13.85;;;9.00;;
77838;SDS011;67034;43.226;27.932;2023-06-26T03:21:16;13.70;;;10.13;;
77838;SDS011;67034;43.226;27.932;2023-06-26T03:23:44;16.17;;;10.18;;
77838;SDS011;67034;43.226;27.932;2023-06-26T03:26:09;16.98;;;10.77;;
77838;SDS011;67034;43.226;27.932;2023-06-26T03:28:35;12.32;;;8.55;;
77838;SDS011;67034;43.226;27.932;2023-06-26T03:31:01;16.88;;;10.27;;
77838;SDS011;67034;43.226;27.932;2023-06-26T03:33:26;14.73;;;9.68;;
77838;SDS011;67034;43.226;27.932;2023-06-26T03:35:52;13.38;;;9.23;;
77838;SDS011;67034;43.226;27.932;2023-06-26T03:38:18;13.45;;;9.30;;
77838;SDS011;67034;43.226;27.932;2023-06-26T03:40:45;14.13;;;9.88;;
77838;SDS011;67034;43.226;27.932;2023-06-26T03:43:11;16.13;;;9.75;;
77838;SDS011;67034;43.226;27.932;2023-06-26T03:45:37;16.85;;;9.88;;
77838;SDS011;67034;43.226;27.932;2023-06-26T03:48:03;15.68;;;9.27;;
77838;SDS011;67034;43.226;27.932;2023-06-26T03:50:33;13.45;;;8.70;;
77838;SDS011;67034;43.226;27.932;2023-06-26T03:52:59;13.65;;;9.27;;
77838;SDS011;67034;43.226;27.932;2023-06-26T03:55:24;11.60;;;8.55;;
77838;SDS011;67034;43.226;27.932;2023-06-26T03:57:51;16.13;;;9.15;;
77838;SDS011;67034;43.226;27.932;2023-06-26T04:00:17;13.07;;;8.73;;
77838;SDS011;67034;43.226;27.932;2023-06-26T04:02:43;13.40;;;9.38;;
77838;SDS011;67034;43.226;27.932;2023-06-26T04:05:09;16.08;;;9.20;;
77838;SDS011;67034;43.226;27.932;2023-06-26T04:07:34;13.52;;;9.25;;
77838;SDS011;67034;43.226;27.932;2023-06-26T04:10:01;13.20;;;9.98;;
77838;SDS011;67034;43.226;27.932;2023-06-26T04:12:26;15.07;;;9.32;;
77838;SDS011;67034;43.226;27.932;2023-06-26T04:14:54;14.98;;;9.25;;
77838;SDS011;67034;43.226;27.932;2023-06-26T04:17:19;15.05;;;10.15;;
77838;SDS011;67034;43.226;27.932;2023-06-26T04:19:45;15.93;;;11.75;;
77838;SDS011;67034;43.226;27.932;2023-06-26T04:22:11;12.35;;;9.02;;
77838;SDS011;67034;43.226;27.932;2023-06-26T04:24:37;13.60;;;9.07;;
77838;SDS011;67034;43.226;27.932;2023-06-26T04:27:03;14.13;;;9.30;;
77838;SDS011;67034;43.226;27.932;2023-06-26T04:29:29;14.05;;;9.65;;
77838;SDS011;67034;43.226;27.932;2023-06-26T04:31:56;16.08;;;9.57;;
77838;SDS011;67034;43.226;27.932;2023-06-26T04:34:23;15.60;;;8.95;;
77838;SDS011;67034;43.226;27.932;2023-06-26T04:36:49;19.88;;;10.50;;
77838;SDS011;67034;43.226;27.932;2023-06-26T04:39:15;15.43;;;9.73;;
77838;SDS011;67034;43.226;27.932;2023-06-26T04:41:41;17.85;;;10.48;;
77838;SDS011;67034;43.226;27.932;2023-06-26T04:44:07;15.85;;;10.00;;
77838;SDS011;67034;43.226;27.932;2023-06-26T04:46:33;14.77;;;9.73;;
77838;SDS011;67034;43.226;27.932;2023-06-26T04:49:00;15.95;;;11.52;;
77838;SDS011;67034;43.226;27.932;2023-06-26T04:51:28;15.68;;;10.60;;
77838;SDS011;67034;43.226;27.932;2023-06-26T04:53:54;15.73;;;10.82;;
77838;SDS011;67034;43.226;27.932;2023-06-26T04:56:19;19.70;;;10.25;;
77838;SDS011;67034;43.226;27.932;2023-06-26T04:58:47;14.70;;;10.57;;
77838;SDS011;67034;43.226;27.932;2023-06-26T05:01:12;15.95;;;8.98;;
77838;SDS011;67034;43.226;27.932;2023-06-26T05:03:40;12.13;;;9.75;;
77838;SDS011;67034;43.226;27.932;2023-06-26T05:06:07;12.73;;;8.18;;
77838;SDS011;67034;43.226;27.932;2023-06-26T05:08:33;12.75;;;7.95;;
77838;SDS011;67034;43.226;27.932;2023-06-26T05:10:59;14.85;;;7.72;;
77838;SDS011;67034;43.226;27.932;2023-06-26T05:13:24;10.65;;;7.53;;
77838;SDS011;67034;43.226;27.932;2023-06-26T05:15:51;9.88;;;7.07;;
77838;SDS011;67034;43.226;27.932;2023-06-26T05:18:17;10.05;;;6.57;;
77838;SDS011;67034;43.226;27.932;2023-06-26T05:20:43;5.80;;;4.90;;
77838;SDS011;67034;43.226;27.932;2023-06-26T05:23:11;6.22;;;4.97;;
77838;SDS011;67034;43.226;27.932;2023-06-26T05:25:38;6.28;;;4.93;;
77838;SDS011;67034;43.226;27.932;2023-06-26T05:28:04;6.55;;;5.00;;
77838;SDS011;67034;43.226;27.932;2023-06-26T05:30:31;8.53;;;5.43;;
77838;SDS011;67034;43.226;27.932;2023-06-26T05:32:59;7.38;;;5.90;;
77838;SDS011;67034;43.226;27.932;2023-06-26T05:35:26;6.93;;;5.25;;
77838;SDS011;67034;43.226;27.932;2023-06-26T05:37:55;7.35;;;5.38;;
77838;SDS011;67034;43.226;27.932;2023-06-26T05:40:23;7.65;;;5.90;;
77838;SDS011;67034;43.226;27.932;2023-06-26T05:42:50;10.18;;;5.85;;
77838;SDS011;67034;43.226;27.932;2023-06-26T05:45:16;7.28;;;5.63;;
77838;SDS011;67034;43.226;27.932;2023-06-26T05:47:42;8.23;;;5.40;;
77838;SDS011;67034;43.226;27.932;2023-06-26T05:50:08;7.40;;;6.03;;
77838;SDS011;67034;43.226;27.932;2023-06-26T05:52:35;7.05;;;5.72;;
77838;SDS011;67034;43.226;27.932;2023-06-26T05:55:01;7.90;;;5.90;;
77838;SDS011;67034;43.226;27.932;2023-06-26T05:57:30;6.55;;;5.80;;
77838;SDS011;67034;43.226;27.932;2023-06-26T05:59:56;7.15;;;5.90;;
77838;SDS011;67034;43.226;27.932;2023-06-26T06:02:22;9.30;;;6.15;;
77838;SDS011;67034;43.226;27.932;2023-06-26T06:04:48;11.75;;;6.20;;
77838;SDS011;67034;43.226;27.932;2023-06-26T06:07:14;7.93;;;6.32;;
77838;SDS011;67034;43.226;27.932;2023-06-26T06:09:40;8.07;;;6.22;;
77838;SDS011;67034;43.226;27.932;2023-06-26T06:12:06;9.50;;;7.28;;
77838;SDS011;67034;43.226;27.932;2023-06-26T06:14:34;9.00;;;6.72;;
77838;SDS011;67034;43.226;27.932;2023-06-26T06:17:00;8.80;;;6.63;;
77838;SDS011;67034;43.226;27.932;2023-06-26T06:19:26;9.73;;;7.13;;
77838;SDS011;67034;43.226;27.932;2023-06-26T06:21:52;8.95;;;6.28;;
77838;SDS011;67034;43.226;27.932;2023-06-26T06:24:19;9.40;;;6.97;;
77838;SDS011;67034;43.226;27.932;2023-06-26T06:26:45;9.88;;;6.68;;
77838;SDS011;67034;43.226;27.932;2023-06-26T06:29:11;8.32;;;6.55;;
77838;SDS011;67034;43.226;27.932;2023-06-26T06:31:38;10.07;;;6.82;;
77838;SDS011;67034;43.226;27.932;2023-06-26T06:34:04;10.88;;;7.85;;
77838;SDS011;67034;43.226;27.932;2023-06-26T06:36:30;10.45;;;7.28;;
77838;SDS011;67034;43.226;27.932;2023-06-26T06:38:56;9.50;;;7.13;;
77838;SDS011;67034;43.226;27.932;2023-06-26T06:41:22;10.25;;;7.68;;
77838;SDS011;67034;43.226;27.932;2023-06-26T06:43:47;10.15;;;7.07;;
77838;SDS011;67034;43.226;27.932;2023-06-26T06:46:13;9.77;;;7.43;;
77838;SDS011;67034;43.226;27.932;2023-06-26T06:48:40;9.85;;;7.88;;
77838;SDS011;67034;43.226;27.932;2023-06-26T06:51:06;10.30;;;7.60;;
77838;SDS011;67034;43.226;27.932;2023-06-26T06:53:32;9.75;;;7.50;;
77838;SDS011;67034;43.226;27.932;2023-06-26T06:55:57;12.65;;;8.43;;
77838;SDS011;67034;43.226;27.932;2023-06-26T06:58:23;9.68;;;8.23;;
77838;SDS011;67034;43.226;27.932;2023-06-26T07:00:49;9.93;;;7.75;;
77838;SDS011;67034;43.226;27.932;2023-06-26T07:03:16;14.40;;;8.15;;
77838;SDS011;67034;43.226;27.932;2023-06-26T07:05:43;9.88;;;7.30;;
77838;SDS011;67034;43.226;27.932;2023-06-26T07:08:09;14.75;;;7.53;;
77838;SDS011;67034;43.226;27.932;2023-06-26T07:10:35;11.88;;;7.22;;
77838;SDS011;67034;43.226;27.932;2023-06-26T07:13:01;9.23;;;7.07;;
77838;SDS011;67034;43.226;27.932;2023-06-26T07:15:27;14.23;;;7.72;;
77838;SDS011;67034;43.226;27.932;2023-06-26T07:17:53;9.05;;;7.63;;
77838;SDS011;67034;43.226;27.932;2023-06-26T07:20:18;9.18;;;7.20;;
77838;SDS011;67034;43.226;27.932;2023-06-26T07:22:46;9.68;;;7.80;;
77838;SDS011;67034;43.226;27.932;2023-06-26T07:25:12;11.30;;;7.63;;
77838;SDS011;67034;43.226;27.932;2023-06-26T07:27:38;11.68;;;8.38;;
77838;SDS011;67034;43.226;27.932;2023-06-26T07:30:04;12.40;;;8.20;;
77838;SDS011;67034;43.226;27.932;2023-06-26T07:32:30;13.20;;;8.60;;
77838;SDS011;67034;43.226;27.932;2023-06-26T07:34:56;12.93;;;8.00;;
77838;SDS011;67034;43.226;27.932;2023-06-26T07:37:22;10.10;;;7.30;;
77838;SDS011;67034;43.226;27.932;2023-06-26T07:39:49;10.25;;;7.63;;
77838;SDS011;67034;43.226;27.932;2023-06-26T07:42:15;12.10;;;7.63;;
77838;SDS011;67034;43.226;27.932;2023-06-26T07:44:41;14.13;;;7.78;;
77838;SDS011;67034;43.226;27.932;2023-06-26T07:47:07;10.63;;;6.97;;
77838;SDS011;67034;43.226;27.932;2023-06-26T07:49:32;11.60;;;7.00;;
77838;SDS011;67034;43.226;27.932;2023-06-26T07:51:58;9.98;;;7.22;;
77838;SDS011;67034;43.226;27.932;2023-06-26T07:54:24;9.80;;;6.53;;
77838;SDS011;67034;43.226;27.932;2023-06-26T07:56:55;10.02;;;6.38;;
77838;SDS011;67034;43.226;27.932;2023-06-26T07:59:21;8.75;;;6.35;;
77838;SDS011;67034;43.226;27.932;2023-06-26T08:01:51;7.78;;;6.68;;
77838;SDS011;67034;43.226;27.932;2023-06-26T08:04:18;8.07;;;5.85;;
77838;SDS011;67034;43.226;27.932;2023-06-26T08:06:48;8.82;;;6.15;;
77838;SDS011;67034;43.226;27.932;2023-06-26T08:09:15;11.52;;;6.65;;
77838;SDS011;67034;43.226;27.932;2023-06-26T08:11:42;8.50;;;6.40;;
77838;SDS011;67034;43.226;27.932;2023-06-26T08:14:09;10.20;;;6.47;;
77838;SDS011;67034;43.226;27.932;2023-06-26T08:16:36;9.73;;;7.50;;
77838;SDS011;67034;43.226;27.932;2023-06-26T08:19:02;10.45;;;6.43;;
77838;SDS011;67034;43.226;27.932;2023-06-26T08:21:28;7.95;;;6.18;;
77838;SDS011;67034;43.226;27.932;2023-06-26T08:23:54;8.13;;;6.05;;
77838;SDS011;67034;43.226;27.932;2023-06-26T08:26:20;8.02;;;6.03;;
77838;SDS011;67034;43.226;27.932;2023-06-26T08:28:45;9.77;;;5.93;;
77838;SDS011;67034;43.226;27.932;2023-06-26T08:31:12;7.35;;;6.03;;
77838;SDS011;67034;43.226;27.932;2023-06-26T08:33:38;7.45;;;6.07;;
77838;SDS011;67034;43.226;27.932;2023-06-26T08:36:04;7.25;;;6.45;;
77838;SDS011;67034;43.226;27.932;2023-06-26T08:38:31;9.32;;;6.28;;
77838;SDS011;67034;43.226;27.932;2023-06-26T08:40:58;9.32;;;6.68;;
77838;SDS011;67034;43.226;27.932;2023-06-26T08:43:23;8.48;;;6.55;;
77838;SDS011;67034;43.226;27.932;2023-06-26T08:45:49;10.15;;;5.72;;
77838;SDS011;67034;43.226;27.932;2023-06-26T08:48:18;8.27;;;5.88;;
77838;SDS011;67034;43.226;27.932;2023-06-26T08:50:45;7.30;;;5.60;;
77838;SDS011;67034;43.226;27.932;2023-06-26T08:53:14;13.30;;;6.15;;
77838;SDS011;67034;43.226;27.932;2023-06-26T08:55:49;7.80;;;5.68;;
77838;SDS011;67034;43.226;27.932;2023-06-26T08:58:18;10.32;;;6.20;;
77838;SDS011;67034;43.226;27.932;2023-06-26T09:00:44;8.68;;;5.55;;
77838;SDS011;67034;43.226;27.932;2023-06-26T09:03:09;10.15;;;5.97;;
77838;SDS011;67034;43.226;27.932;2023-06-26T09:05:36;10.55;;;5.88;;
77838;SDS011;67034;43.226;27.932;2023-06-26T09:08:03;9.18;;;5.35;;
77838;SDS011;67034;43.226;27.932;2023-06-26T09:10:29;6.53;;;5.30;;
77838;SDS011;67034;43.226;27.932;2023-06-26T09:12:55;7.38;;;5.60;;
77838;SDS011;67034;43.226;27.932;2023-06-26T09:15:22;7.75;;;5.53;;
77838;SDS011;67034;43.226;27.932;2023-06-26T09:17:49;7.80;;;5.25;;
77838;SDS011;67034;43.226;27.932;2023-06-26T09:20:15;6.95;;;5.05;;
77838;SDS011;67034;43.226;27.932;2023-06-26T09:22:43;9.25;;;5.75;;
77838;SDS011;67034;43.226;27.932;2023-06-26T09:25:12;8.38;;;5.55;;
77838;SDS011;67034;43.226;27.932;2023-06-26T09:27:38;10.07;;;5.53;;
77838;SDS011;67034;43.226;27.932;2023-06-26T09:30:04;6.18;;;5.10;;
77838;SDS011;67034;43.226;27.932;2023-06-26T09:32:34;8.95;;;5.57;;
77838;SDS011;67034;43.226;27.932;2023-06-26T09:35:02;8.40;;;5.53;;
77838;SDS011;67034;43.226;27.932;2023-06-26T09:37:28;7.72;;;5.60;;
77838;SDS011;67034;43.226;27.932;2023-06-26T09:39:55;7.53;;;5.90;;
77838;SDS011;67034;43.226;27.932;2023-06-26T09:42:21;7.10;;;5.78;;
77838;SDS011;67034;43.226;27.932;2023-06-26T09:44:48;6.95;;;5.60;;
77838;SDS011;67034;43.226;27.932;2023-06-26T09:47:15;8.15;;;5.57;;
77838;SDS011;67034;43.226;27.932;2023-06-26T09:49:43;7.03;;;5.43;;
77838;SDS011;67034;43.226;27.932;2023-06-26T09:52:09;7.47;;;5.22;;
77838;SDS011;67034;43.226;27.932;2023-06-26T09:54:38;7.63;;;4.82;;
77838;SDS011;67034;43.226;27.932;2023-06-26T09:57:08;8.25;;;4.90;;
77838;SDS011;67034;43.226;27.932;2023-06-26T09:59:35;5.75;;;4.50;;
77838;SDS011;67034;43.226;27.932;2023-06-26T10:02:01;6.03;;;4.70;;
77838;SDS011;67034;43.226;27.932;2023-06-26T10:04:27;7.35;;;5.18;;
77838;SDS011;67034;43.226;27.932;2023-06-26T10:06:54;6.57;;;4.82;;
77838;SDS011;67034;43.226;27.932;2023-06-26T10:09:22;6.07;;;4.15;;
77838;SDS011;67034;43.226;27.932;2023-06-26T10:11:49;5.32;;;4.28;;
77838;SDS011;67034;43.226;27.932;2023-06-26T10:14:21;4.90;;;3.88;;
77838;SDS011;67034;43.226;27.932;2023-06-26T10:16:49;5.78;;;4.10;;
77838;SDS011;67034;43.226;27.932;2023-06-26T10:19:16;7.22;;;6.25;;
77838;SDS011;67034;43.226;27.932;2023-06-26T10:21:46;7.22;;;4.57;;
77838;SDS011;67034;43.226;27.932;2023-06-26T10:24:12;7.25;;;4.45;;
77838;SDS011;67034;43.226;27.932;2023-06-26T10:26:40;6.05;;;4.90;;
77838;SDS011;67034;43.226;27.932;2023-06-26T10:29:09;6.47;;;4.40;;
77838;SDS011;67034;43.226;27.932;2023-06-26T10:31:38;6.50;;;4.07;;
77838;SDS011;67034;43.226;27.932;2023-06-26T10:34:05;5.22;;;4.72;;
77838;SDS011;67034;43.226;27.932;2023-06-26T10:36:31;5.00;;;4.05;;
77838;SDS011;67034;43.226;27.932;2023-06-26T10:38:58;8.40;;;4.38;;
77838;SDS011;67034;43.226;27.932;2023-06-26T10:41:30;8.05;;;4.32;;
77838;SDS011;67034;43.226;27.932;2023-06-26T10:44:06;4.85;;;3.65;;
77838;SDS011;67034;43.226;27.932;2023-06-26T10:46:33;6.43;;;3.83;;
77838;SDS011;67034;43.226;27.932;2023-06-26T10:49:14;5.97;;;3.75;;
77838;SDS011;67034;43.226;27.932;2023-06-26T10:51:44;4.55;;;3.53;;
77838;SDS011;67034;43.226;27.932;2023-06-26T10:54:13;5.13;;;4.00;;
77838;SDS011;67034;43.226;27.932;2023-06-26T10:56:44;6.13;;;4.10;;
77838;SDS011;67034;43.226;27.932;2023-06-26T10:59:11;4.80;;;3.80;;
77838;SDS011;67034;43.226;27.932;2023-06-26T11:01:40;5.18;;;3.95;;
77838;SDS011;67034;43.226;27.932;2023-06-26T11:04:07;5.30;;;3.33;;
77838;SDS011;67034;43.226;27.932;2023-06-26T11:06:38;4.97;;;3.30;;
77838;SDS011;67034;43.226;27.932;2023-06-26T11:09:08;6.65;;;3.83;;
77838;SDS011;67034;43.226;27.932;2023-06-26T11:11:57;5.47;;;3.72;;
77838;SDS011;67034;43.226;27.932;2023-06-26T11:14:24;4.53;;;3.60;;
77838;SDS011;67034;43.226;27.932;2023-06-26T11:16:51;6.65;;;3.47;;
77838;SDS011;67034;43.226;27.932;2023-06-26T11:19:18;5.13;;;3.55;;
77838;SDS011;67034;43.226;27.932;2023-06-26T11:21:46;5.10;;;3.38;;
77838;SDS011;67034;43.226;27.932;2023-06-26T11:24:12;4.40;;;3.47;;
77838;SDS011;67034;43.226;27.932;2023-06-26T11:26:39;4.63;;;3.55;;
77838;SDS011;67034;43.226;27.932;2023-06-26T11:29:05;4.78;;;3.30;;
77838;SDS011;67034;43.226;27.932;2023-06-26T11:31:31;5.88;;;3.40;;
77838;SDS011;67034;43.226;27.932;2023-06-26T11:33:58;5.43;;;3.53;;
77838;SDS011;67034;43.226;27.932;2023-06-26T11:36:29;6.07;;;3.83;;
77838;SDS011;67034;43.226;27.932;2023-06-26T11:38:57;4.43;;;3.47;;
77838;SDS011;67034;43.226;27.932;2023-06-26T11:41:25;6.78;;;3.40;;
77838;SDS011;67034;43.226;27.932;2023-06-26T11:43:52;4.95;;;3.53;;
77838;SDS011;67034;43.226;27.932;2023-06-26T11:46:19;4.38;;;3.20;;
77838;SDS011;67034;43.226;27.932;2023-06-26T11:48:45;4.88;;;3.80;;
77838;SDS011;67034;43.226;27.932;2023-06-26T11:51:12;4.65;;;3.55;;
77838;SDS011;67034;43.226;27.932;2023-06-26T11:53:39;5.05;;;3.50;;
77838;SDS011;67034;43.226;27.932;2023-06-26T11:56:09;5.50;;;3.58;;
77838;SDS011;67034;43.226;27.932;2023-06-26T11:58:35;15.60;;;4.43;;
77838;SDS011;67034;43.226;27.932;2023-06-26T12:01:01;5.82;;;3.40;;
77838;SDS011;67034;43.226;27.932;2023-06-26T12:03:27;6.90;;;4.85;;
77838;SDS011;67034;43.226;27.932;2023-06-26T12:05:54;13.48;;;7.53;;
77838;SDS011;67034;43.226;27.932;2023-06-26T12:08:20;16.40;;;10.48;;
77838;SDS011;67034;43.226;27.932;2023-06-26T12:10:46;20.65;;;8.25;;
77838;SDS011;67034;43.226;27.932;2023-06-26T12:13:14;10.05;;;6.82;;
77838;SDS011;67034;43.226;27.932;2023-06-26T12:15:39;8.55;;;6.35;;
77838;SDS011;67034;43.226;27.932;2023-06-26T12:18:07;9.63;;;6.53;;
77838;SDS011;67034;43.226;27.932;2023-06-26T12:20:39;11.15;;;6.75;;
77838;SDS011;67034;43.226;27.932;2023-06-26T12:23:11;10.02;;;6.82;;
77838;SDS011;67034;43.226;27.932;2023-06-26T12:25:37;11.88;;;6.88;;
77838;SDS011;67034;43.226;27.932;2023-06-26T12:28:03;7.13;;;5.95;;
77838;SDS011;67034;43.226;27.932;2023-06-26T12:30:45;9.43;;;6.78;;
77838;SDS011;67034;43.226;27.932;2023-06-26T12:33:12;11.45;;;7.28;;
77838;SDS011;67034;43.226;27.932;2023-06-26T12:35:39;6.68;;;5.70;;
77838;SDS011;67034;43.226;27.932;2023-06-26T12:38:06;20.75;;;9.38;;
77838;SDS011;67034;43.226;27.932;2023-06-26T12:40:34;16.77;;;7.82;;
77838;SDS011;67034;43.226;27.932;2023-06-26T12:43:00;16.92;;;8.57;;
77838;SDS011;67034;43.226;27.932;2023-06-26T12:45:29;16.77;;;7.85;;
77838;SDS011;67034;43.226;27.932;2023-06-26T12:48:10;11.93;;;6.90;;
77838;SDS011;67034;43.226;27.932;2023-06-26T12:50:38;10.75;;;7.57;;
77838;SDS011;67034;43.226;27.932;2023-06-26T12:53:08;15.10;;;8.77;;
77838;SDS011;67034;43.226;27.932;2023-06-26T12:55:34;25.48;;;9.50;;
77838;SDS011;67034;43.226;27.932;2023-06-26T12:58:01;10.05;;;6.55;;
77838;SDS011;67034;43.226;27.932;2023-06-26T13:00:28;13.45;;;7.80;;
77838;SDS011;67034;43.226;27.932;2023-06-26T13:02:55;14.05;;;7.85;;
77838;SDS011;67034;43.226;27.932;2023-06-26T13:05:21;11.20;;;7.03;;
77838;SDS011;67034;43.226;27.932;2023-06-26T13:07:47;11.18;;;8.15;;
77838;SDS011;67034;43.226;27.932;2023-06-26T13:10:12;15.90;;;9.07;;
77838;SDS011;67034;43.226;27.932;2023-06-26T13:12:38;11.07;;;7.30;;
77838;SDS011;67034;43.226;27.932;2023-06-26T13:15:04;11.57;;;7.90;;
77838;SDS011;67034;43.226;27.932;2023-06-26T13:17:32;10.07;;;7.28;;
77838;SDS011;67034;43.226;27.932;2023-06-26T13:19:58;10.52;;;6.65;;
77838;SDS011;67034;43.226;27.932;2023-06-26T13:22:23;12.65;;;8.40;;
77838;SDS011;67034;43.226;27.932;2023-06-26T13:24:49;16.20;;;7.55;;
77838;SDS011;67034;43.226;27.932;2023-06-26T13:27:16;13.68;;;7.82;;
77838;SDS011;67034;43.226;27.932;2023-06-26T13:29:41;11.80;;;7.85;;
77838;SDS011;67034;43.226;27.932;2023-06-26T13:32:07;10.73;;;6.80;;
77838;SDS011;67034;43.226;27.932;2023-06-26T13:34:35;11.75;;;7.30;;
77838;SDS011;67034;43.226;27.932;2023-06-26T13:37:01;11.88;;;6.55;;
77838;SDS011;67034;43.226;27.932;2023-06-26T13:39:26;10.60;;;6.00;;
77838;SDS011;67034;43.226;27.932;2023-06-26T13:41:52;16.88;;;7.88;;
77838;SDS011;67034;43.226;27.932;2023-06-26T13:44:18;12.75;;;6.68;;
77838;SDS011;67034;43.226;27.932;2023-06-26T13:46:44;13.65;;;6.80;;
77838;SDS011;67034;43.226;27.932;2023-06-26T13:49:09;18.77;;;8.13;;
77838;SDS011;67034;43.226;27.932;2023-06-26T13:51:38;11.45;;;6.93;;
77838;SDS011;67034;43.226;27.932;2023-06-26T13:54:10;12.05;;;7.40;;
77838;SDS011;67034;43.226;27.932;2023-06-26T13:56:36;10.68;;;7.13;;
77838;SDS011;67034;43.226;27.932;2023-06-26T13:59:02;13.38;;;7.20;;
77838;SDS011;67034;43.226;27.932;2023-06-26T14:01:29;11.77;;;6.03;;
77838;SDS011;67034;43.226;27.932;2023-06-26T14:03:55;25.35;;;8.57;;
77838;SDS011;67034;43.226;27.932;2023-06-26T14:06:21;10.60;;;7.47;;
77838;SDS011;67034;43.226;27.932;2023-06-26T14:08:48;8.50;;;6.65;;
77838;SDS011;67034;43.226;27.932;2023-06-26T14:11:14;13.00;;;7.50;;
77838;SDS011;67034;43.226;27.932;2023-06-26T14:13:40;12.55;;;7.18;;
77838;SDS011;67034;43.226;27.932;2023-06-26T14:16:06;10.32;;;7.57;;
77838;SDS011;67034;43.226;27.932;2023-06-26T14:18:32;15.77;;;8.13;;
77838;SDS011;67034;43.226;27.932;2023-06-26T14:20:58;15.83;;;7.77;;
77838;SDS011;67034;43.226;27.932;2023-06-26T14:23:23;7.55;;;6.30;;